Time;durP1;ratioP1;P1;durP2;ratioP2;P2;SDS_P1;SDS_P2;PMS_P1;PMS_P2;Temp;Humidity;BMP_temperature;BMP_pressure;BME280_temperature;BME280_humidity;BME280_pressure;Samples;Min_cycle;Max_cycle;Signal;HPM_P1;HPM_P2
2020/12/06 00:00:22;;;;;;;13.02;2.75;;;15.80;74.80;;;;;;5055599;28;20021;-70
2020/12/06 00:02:48;;;;;;;12.90;2.65;;;15.70;75.10;;;;;;5054963;28;20125;-69
2020/12/06 00:05:14;;;;;;;11.38;2.30;;;15.70;75.30;;;;;;5055398;28;20045;-69
2020/12/06 00:07:40;;;;;;;10.48;2.33;;;15.70;75.50;;;;;;5055388;28;20091;-69
2020/12/06 00:10:07;;;;;;;9.25;2.42;;;15.70;75.30;;;;;;5054228;28;20478;-69
2020/12/06 00:12:37;;;;;;;12.20;2.83;;;15.80;75.40;;;;;;5055689;28;20370;-69
2020/12/06 00:15:07;;;;;;;13.38;2.70;;;15.80;75.30;;;;;;5055072;28;20029;-73
2020/12/06 00:17:33;;;;;;;11.93;2.72;;;15.80;75.50;;;;;;5055210;28;20047;-70
2020/12/06 00:19:59;;;;;;;15.73;2.85;;;15.70;75.80;;;;;;5055239;28;20013;-69
2020/12/06 00:22:25;;;;;;;15.60;3.03;;;15.70;76.00;;;;;;5053705;28;20167;-68
2020/12/06 00:24:51;;;;;;;12.70;2.72;;;15.70;76.30;;;;;;5054986;28;20060;-72
2020/12/06 00:27:17;;;;;;;14.38;3.45;;;15.60;76.60;;;;;;5054981;28;20025;-71
2020/12/06 00:29:43;;;;;;;13.45;2.97;;;15.70;76.60;;;;;;5054674;28;20507;-67
2020/12/06 00:32:08;;;;;;;15.93;2.70;;;15.70;76.40;;;;;;5054940;28;20106;-72
2020/12/06 00:34:34;;;;;;;15.45;2.60;;;15.70;76.20;;;;;;5054837;28;20106;-72
2020/12/06 00:37:00;;;;;;;12.93;2.20;;;15.60;76.10;;;;;;5054584;28;20458;-70
2020/12/06 00:39:25;;;;;;;11.90;2.15;;;15.50;76.10;;;;;;5054499;28;20028;-69
2020/12/06 00:41:51;;;;;;;13.00;2.33;;;15.60;75.80;;;;;;5054531;28;20478;-68
2020/12/06 00:44:17;;;;;;;12.73;2.63;;;15.70;75.80;;;;;;5054517;28;20032;-67
2020/12/06 00:46:44;;;;;;;12.65;2.75;;;15.70;75.60;;;;;;5054516;28;20469;-66
2020/12/06 00:49:09;;;;;;;12.25;2.60;;;15.70;75.40;;;;;;5054187;28;20446;-68
2020/12/06 00:51:35;;;;;;;16.70;3.13;;;15.80;75.30;;;;;;5054266;28;20024;-67
2020/12/06 00:54:01;;;;;;;15.40;3.05;;;15.70;75.30;;;;;;5053987;28;20023;-67
2020/12/06 00:56:27;;;;;;;12.40;2.38;;;15.70;75.60;;;;;;5054227;28;20033;-68
2020/12/06 00:58:53;;;;;;;14.50;3.33;;;15.70;75.70;;;;;;5054193;28;20032;-68
2020/12/06 01:01:20;;;;;;;13.35;2.78;;;15.70;75.80;;;;;;5054237;28;20017;-67
2020/12/06 01:03:46;;;;;;;13.35;2.63;;;15.60;76.20;;;;;;5054131;28;20025;-66
2020/12/06 01:06:14;;;;;;;14.25;2.42;;;15.60;76.10;;;;;;5053834;28;20056;-67
2020/12/06 01:08:40;;;;;;;16.23;2.53;;;15.60;76.30;;;;;;5054889;28;20027;-68
2020/12/06 01:11:06;;;;;;;16.27;3.15;;;15.60;76.20;;;;;;5052534;28;20390;-68
2020/12/06 01:13:32;;;;;;;14.25;2.67;;;15.60;76.10;;;;;;5053722;28;20024;-67
2020/12/06 01:15:58;;;;;;;14.60;2.63;;;15.60;76.20;;;;;;5053888;28;20532;-67
2020/12/06 01:18:24;;;;;;;15.80;2.53;;;15.60;76.20;;;;;;5053605;28;20099;-66
2020/12/06 01:20:49;;;;;;;10.43;2.15;;;15.60;76.30;;;;;;5053772;28;20120;-67
2020/12/06 01:23:16;;;;;;;12.23;2.90;;;15.60;76.40;;;;;;5053554;28;20055;-68
2020/12/06 01:25:43;;;;;;;14.27;2.40;;;15.60;76.80;;;;;;5053701;28;20017;-67
2020/12/06 01:28:09;;;;;;;11.90;2.72;;;15.50;76.90;;;;;;5053494;28;20025;-67
2020/12/06 01:30:34;;;;;;;13.07;2.55;;;15.60;76.90;;;;;;5053621;28;20048;-66
2020/12/06 01:33:00;;;;;;;11.93;2.72;;;15.50;77.10;;;;;;5053110;28;20497;-68
2020/12/06 01:35:26;;;;;;;16.27;2.88;;;15.50;77.20;;;;;;5053280;28;20025;-67
2020/12/06 01:37:51;;;;;;;10.77;2.50;;;15.40;77.20;;;;;;5053903;28;20036;-67
2020/12/06 01:40:17;;;;;;;11.60;2.50;;;15.30;77.40;;;;;;5053491;28;20474;-69
2020/12/06 01:42:43;;;;;;;16.77;2.70;;;15.30;77.60;;;;;;5053191;28;20032;-67
2020/12/06 01:45:09;;;;;;;8.32;2.35;;;15.30;77.70;;;;;;5053121;28;20480;-67
2020/12/06 01:47:34;;;;;;;14.55;2.65;;;15.20;77.70;;;;;;5053206;28;20021;-67
2020/12/06 01:50:01;;;;;;;16.98;2.95;;;15.20;78.00;;;;;;5053390;28;20104;-70
2020/12/06 01:52:29;;;;;;;11.60;2.67;;;15.10;78.20;;;;;;5053370;28;20090;-68
2020/12/06 01:54:55;;;;;;;13.65;2.45;;;15.10;78.30;;;;;;5052894;28;20021;-68
2020/12/06 01:57:21;;;;;;;12.32;2.30;;;15.10;78.30;;;;;;5053111;28;20036;-67
2020/12/06 01:59:47;;;;;;;12.23;2.53;;;15.00;78.40;;;;;;5053290;28;20425;-67
2020/12/06 02:02:14;;;;;;;9.38;2.30;;;15.10;78.50;;;;;;5053004;28;20485;-73
2020/12/06 02:04:44;;;;;;;11.32;2.47;;;15.10;78.50;;;;;;5053080;28;20033;-68
2020/12/06 02:07:09;;;;;;;11.38;2.45;;;15.10;78.90;;;;;;5052906;28;20033;-68
2020/12/06 02:09:35;;;;;;;11.90;2.33;;;15.00;78.40;;;;;;5052855;28;20043;-69
2020/12/06 02:12:07;;;;;;;10.65;2.40;;;15.00;78.80;;;;;;5053394;28;20025;-73
2020/12/06 02:14:33;;;;;;;8.80;1.90;;;14.90;78.80;;;;;;5053180;28;20017;-70
2020/12/06 02:16:59;;;;;;;10.85;2.22;;;14.80;79.00;;;;;;5053146;28;20025;-68
2020/12/06 02:19:25;;;;;;;10.55;2.63;;;14.80;79.20;;;;;;5052777;28;20033;-67
2020/12/06 02:21:50;;;;;;;7.55;2.03;;;14.80;79.00;;;;;;5053083;28;20028;-68
2020/12/06 02:24:18;;;;;;;9.68;2.17;;;14.70;79.10;;;;;;5052801;28;20071;-68
2020/12/06 02:26:46;;;;;;;4.70;1.50;;;14.70;79.20;;;;;;5053232;28;20013;-69
2020/12/06 02:29:12;;;;;;;4.30;1.67;;;14.70;79.20;;;;;;5052990;28;20100;-67
2020/12/06 02:31:39;;;;;;;6.97;1.60;;;14.60;79.00;;;;;;5052899;28;20062;-68
2020/12/06 02:34:07;;;;;;;5.38;1.33;;;14.70;79.20;;;;;;5052995;28;20517;-70
2020/12/06 02:36:33;;;;;;;6.32;1.67;;;14.70;79.00;;;;;;5052765;28;20032;-68
2020/12/06 02:38:58;;;;;;;5.50;1.60;;;14.70;78.80;;;;;;5052821;28;20474;-67
2020/12/06 02:41:38;;;;;;;6.38;1.63;;;14.70;78.60;;;;;;5052945;28;20029;-72
2020/12/06 02:44:05;;;;;;;4.70;1.23;;;14.70;78.50;;;;;;5053066;28;20112;-68
2020/12/06 02:46:31;;;;;;;4.18;1.50;;;14.60;78.20;;;;;;5056764;28;20033;-69
2020/12/06 02:48:57;;;;;;;4.47;1.23;;;14.60;78.20;;;;;;5056550;28;20485;-73
2020/12/06 02:51:23;;;;;;;4.90;1.30;;;14.50;78.20;;;;;;5056747;28;20025;-71
2020/12/06 02:53:49;;;;;;;6.72;1.38;;;14.50;78.00;;;;;;5055110;28;20450;-72
2020/12/06 02:56:15;;;;;;;4.05;1.25;;;14.50;78.00;;;;;;5056795;28;20425;-68
2020/12/06 02:58:41;;;;;;;1.60;0.73;;;14.50;78.00;;;;;;5056709;28;20032;-73
2020/12/06 03:01:06;;;;;;;6.40;1.40;;;14.50;77.80;;;;;;5058128;28;20096;-69
2020/12/06 03:03:32;;;;;;;5.25;1.25;;;14.50;77.80;;;;;;5058433;28;20124;-76
2020/12/06 03:05:58;;;;;;;3.72;1.05;;;14.40;77.80;;;;;;5056977;28;20041;-76
2020/12/06 03:08:23;;;;;;;4.60;1.20;;;14.60;78.10;;;;;;5056958;28;20083;-76
2020/12/06 03:10:49;;;;;;;6.07;1.20;;;14.50;77.30;;;;;;5056444;28;20025;-76
2020/12/06 03:13:15;;;;;;;3.05;0.90;;;14.60;77.70;;;;;;5056462;28;20117;-76
2020/12/06 03:15:41;;;;;;;6.60;1.85;;;14.60;77.50;;;;;;5056287;28;20211;-77
2020/12/06 03:18:06;;;;;;;4.97;1.15;;;14.60;77.40;;;;;;5056087;28;20174;-70
2020/12/06 03:20:32;;;;;;;4.88;1.33;;;14.60;77.30;;;;;;5056208;28;20066;-69
2020/12/06 03:22:59;;;;;;;3.78;1.23;;;14.70;77.20;;;;;;5056463;28;20029;-69
2020/12/06 03:25:25;;;;;;;5.35;1.35;;;14.80;77.10;;;;;;5056066;28;20086;-67
2020/12/06 03:27:51;;;;;;;4.30;1.05;;;14.70;76.60;;;;;;5055987;28;20036;-70
2020/12/06 03:30:17;;;;;;;4.95;1.35;;;14.70;76.80;;;;;;5056093;28;20021;-67
2020/12/06 03:32:43;;;;;;;5.60;1.27;;;14.60;77.00;;;;;;5055982;28;20031;-68
2020/12/06 03:35:10;;;;;;;3.45;0.95;;;14.60;77.20;;;;;;5055836;28;20021;-69
2020/12/06 03:37:36;;;;;;;5.80;1.58;;;14.70;77.10;;;;;;5055950;28;20040;-68
2020/12/06 03:40:02;;;;;;;3.85;0.90;;;14.70;76.90;;;;;;5055717;28;20029;-68
2020/12/06 03:42:28;;;;;;;5.43;1.00;;;14.70;76.60;;;;;;5055479;28;20025;-68
2020/12/06 03:44:53;;;;;;;3.13;0.90;;;14.60;76.80;;;;;;5055536;28;20017;-67
2020/12/06 03:47:19;;;;;;;5.10;1.25;;;14.50;77.00;;;;;;5055811;28;20032;-68
2020/12/06 03:49:45;;;;;;;4.43;1.10;;;14.50;77.20;;;;;;5055675;28;20021;-70
2020/12/06 03:52:10;;;;;;;7.75;1.13;;;14.50;77.20;;;;;;5055841;28;20064;-68
2020/12/06 03:54:36;;;;;;;3.45;0.98;;;14.50;77.20;;;;;;5055190;28;20055;-69
2020/12/06 03:57:02;;;;;;;4.55;1.10;;;14.50;77.30;;;;;;5054712;28;20096;-68
2020/12/06 03:59:28;;;;;;;2.38;1.00;;;14.50;77.30;;;;;;5055459;28;20029;-66
2020/12/06 04:01:53;;;;;;;4.47;1.20;;;14.40;77.50;;;;;;5055570;28;20031;-67
2020/12/06 04:04:19;;;;;;;3.90;1.02;;;14.30;77.60;;;;;;5055324;28;20024;-69
2020/12/06 04:06:45;;;;;;;4.70;1.10;;;14.30;77.70;;;;;;5055361;28;20045;-68
2020/12/06 04:09:11;;;;;;;4.25;1.10;;;14.30;77.70;;;;;;5055618;28;20029;-67
2020/12/06 04:11:36;;;;;;;2.10;0.85;;;14.30;78.10;;;;;;5055609;28;20096;-67
2020/12/06 04:14:02;;;;;;;3.22;0.90;;;14.40;78.00;;;;;;5055482;28;20043;-68
2020/12/06 04:16:28;;;;;;;3.20;1.10;;;14.50;77.70;;;;;;5055320;28;20518;-68
2020/12/06 04:18:53;;;;;;;5.57;1.25;;;14.60;77.40;;;;;;5055257;28;20032;-68
2020/12/06 04:21:19;;;;;;;5.78;1.20;;;14.60;77.40;;;;;;5055193;28;20036;-67
2020/12/06 04:23:45;;;;;;;4.88;1.20;;;14.60;77.10;;;;;;5053969;28;20111;-68
2020/12/06 04:26:11;;;;;;;5.75;1.10;;;14.60;77.60;;;;;;5053980;28;20389;-67
2020/12/06 04:28:37;;;;;;;4.35;1.10;;;14.70;77.40;;;;;;5054963;28;20531;-67
2020/12/06 04:31:02;;;;;;;3.60;0.90;;;14.70;77.10;;;;;;5054780;28;20028;-75
2020/12/06 04:33:28;;;;;;;2.38;0.90;;;14.70;77.20;;;;;;5054627;28;20386;-68
2020/12/06 04:35:54;;;;;;;1.98;0.93;;;14.70;77.30;;;;;;5054696;28;20346;-68
2020/12/06 04:38:20;;;;;;;3.38;1.20;;;14.70;77.30;;;;;;5054699;28;20500;-68
2020/12/06 04:40:45;;;;;;;3.40;0.90;;;14.70;77.40;;;;;;5054505;28;20021;-67
2020/12/06 04:43:14;;;;;;;2.72;1.17;;;14.80;77.10;;;;;;5054468;28;20032;-66
2020/12/06 04:45:41;;;;;;;4.88;1.10;;;14.70;77.10;;;;;;5054574;28;20025;-68
2020/12/06 04:48:09;;;;;;;4.93;1.20;;;14.70;77.20;;;;;;5054498;28;20473;-67
2020/12/06 04:50:38;;;;;;;6.07;1.10;;;14.70;76.80;;;;;;5054408;28;20029;-67
2020/12/06 04:53:06;;;;;;;5.35;1.27;;;14.70;77.00;;;;;;5054316;28;20021;-70
2020/12/06 04:55:35;;;;;;;2.95;1.20;;;14.70;77.10;;;;;;5053807;28;20075;-69
2020/12/06 04:58:03;;;;;;;3.00;1.20;;;14.80;77.10;;;;;;5054203;28;20037;-74
2020/12/06 05:00:34;;;;;;;5.05;1.10;;;14.80;77.00;;;;;;5054078;28;20025;-68
2020/12/06 05:03:10;;;;;;;4.55;1.27;;;14.80;77.20;;;;;;5054034;28;20024;-69
2020/12/06 05:05:40;;;;;;;4.32;1.17;;;14.90;76.80;;;;;;5054048;28;20106;-69
2020/12/06 05:08:11;;;;;;;3.72;1.30;;;14.90;76.80;;;;;;5053418;28;20128;-71
2020/12/06 05:10:42;;;;;;;2.92;1.27;;;14.90;76.40;;;;;;5052722;28;20074;-71
2020/12/06 05:13:09;;;;;;;4.00;1.20;;;15.00;76.50;;;;;;5053951;28;20028;-69
2020/12/06 05:15:35;;;;;;;4.40;1.27;;;14.90;76.60;;;;;;5054015;28;20032;-68
2020/12/06 05:18:02;;;;;;;3.63;1.30;;;14.80;77.00;;;;;;5053847;28;20039;-66
2020/12/06 05:20:28;;;;;;;3.35;1.23;;;14.80;77.10;;;;;;5052841;28;20036;-73
2020/12/06 05:22:54;;;;;;;4.13;1.60;;;14.80;77.20;;;;;;5053691;28;20049;-76
2020/12/06 05:25:21;;;;;;;4.90;1.40;;;14.80;77.50;;;;;;5053666;28;20056;-68
2020/12/06 05:27:47;;;;;;;2.13;1.00;;;14.70;77.30;;;;;;5053661;28;20021;-67
2020/12/06 05:30:13;;;;;;;3.13;1.20;;;14.80;77.50;;;;;;5053739;28;20029;-72
2020/12/06 05:32:40;;;;;;;4.20;1.35;;;14.80;77.30;;;;;;5052356;28;20017;-76
2020/12/06 05:35:06;;;;;;;3.85;1.50;;;14.90;77.00;;;;;;5052471;28;20377;-73
2020/12/06 05:37:35;;;;;;;4.90;1.15;;;14.90;76.90;;;;;;5053556;28;20036;-74
2020/12/06 05:40:04;;;;;;;3.15;1.30;;;14.90;76.90;;;;;;5053399;28;20066;-72
2020/12/06 05:42:32;;;;;;;2.10;1.10;;;14.90;76.90;;;;;;5053374;28;20025;-69
2020/12/06 05:44:59;;;;;;;4.82;1.45;;;14.90;77.10;;;;;;5053383;28;20477;-74
2020/12/06 05:47:24;;;;;;;7.53;1.45;;;14.90;77.20;;;;;;5053509;28;20025;-76
2020/12/06 05:49:50;;;;;;;4.05;1.58;;;14.90;77.20;;;;;;5054024;28;20037;-73
2020/12/06 05:52:18;;;;;;;4.82;1.30;;;14.90;77.40;;;;;;5053649;28;20029;-76
2020/12/06 05:54:45;;;;;;;8.45;1.70;;;14.80;77.40;;;;;;5053422;28;20024;-78
2020/12/06 05:57:12;;;;;;;4.47;1.35;;;14.80;77.60;;;;;;5053448;28;20056;-69
2020/12/06 05:59:39;;;;;;;3.20;1.40;;;14.80;77.70;;;;;;5051973;28;20029;-76
2020/12/06 06:02:07;;;;;;;6.82;1.85;;;14.80;78.10;;;;;;5053838;28;20017;-73
2020/12/06 06:04:40;;;;;;;3.25;1.42;;;14.70;78.00;;;;;;5052160;28;20036;-72
2020/12/06 06:07:19;;;;;;;4.38;1.63;;;14.70;78.10;;;;;;5053275;28;20033;-76
2020/12/06 06:09:49;;;;;;;3.97;1.33;;;14.60;78.10;;;;;;5052851;28;20021;-74
2020/12/06 06:12:28;;;;;;;5.15;1.52;;;14.60;78.50;;;;;;5052011;28;20036;-73
2020/12/06 06:15:00;;;;;;;7.20;2.40;;;14.50;78.30;;;;;;5053034;28;20081;-74
2020/12/06 06:17:27;;;;;;;7.75;2.47;;;14.40;78.60;;;;;;5052857;28;20367;-74
2020/12/06 06:19:53;;;;;;;8.85;4.43;;;14.50;79.20;;;;;;5055070;28;20040;-70
2020/12/06 06:22:27;;;;;;;6.72;2.80;;;14.50;79.20;;;;;;5058261;28;20374;-73
2020/12/06 06:24:55;;;;;;;6.15;2.15;;;14.50;79.00;;;;;;5059564;28;20032;-72
2020/12/06 06:27:21;;;;;;;7.50;2.60;;;14.40;78.80;;;;;;5059713;28;20029;-68
2020/12/06 06:29:50;;;;;;;10.35;3.10;;;14.40;79.10;;;;;;5059837;28;20482;-70
2020/12/06 06:32:18;;;;;;;7.82;3.17;;;14.60;79.20;;;;;;5058169;28;20044;-78
2020/12/06 06:34:45;;;;;;;8.10;3.17;;;14.60;78.90;;;;;;5059279;28;20413;-75
2020/12/06 06:37:13;;;;;;;7.00;2.65;;;14.70;78.90;;;;;;5059496;28;20025;-73
2020/12/06 06:39:41;;;;;;;8.13;2.90;;;14.80;78.70;;;;;;5059412;28;20025;-74
2020/12/06 06:42:10;;;;;;;7.18;2.40;;;14.70;78.90;;;;;;5059562;28;20497;-75
2020/12/06 06:44:43;;;;;;;8.90;2.60;;;14.60;79.20;;;;;;5059203;28;20510;-73
2020/12/06 06:47:12;;;;;;;8.05;2.60;;;14.50;79.70;;;;;;5059529;28;20029;-75
2020/12/06 06:50:05;;;;;;;6.32;2.72;;;14.60;79.60;;;;;;5059417;28;20025;-71
2020/12/06 06:52:30;;;;;;;7.82;2.72;;;14.60;79.50;;;;;;5057080;28;20041;-72
2020/12/06 06:54:58;;;;;;;6.03;2.55;;;14.50;79.60;;;;;;5059457;28;20032;-71
2020/12/06 06:57:33;;;;;;;7.45;2.50;;;14.50;79.70;;;;;;5060379;28;20033;-69
2020/12/06 07:00:01;;;;;;;6.88;2.40;;;14.60;79.60;;;;;;5060416;28;20025;-67
2020/12/06 07:02:34;;;;;;;4.38;1.77;;;14.60;79.50;;;;;;5059511;28;20099;-72
2020/12/06 07:05:01;;;;;;;5.00;1.75;;;14.50;79.70;;;;;;5058945;28;20102;-71
2020/12/06 07:07:41;;;;;;;6.80;1.88;;;14.40;80.10;;;;;;5059267;28;20539;-67
2020/12/06 07:10:08;;;;;;;5.05;1.55;;;14.40;80.60;;;;;;5059709;28;20028;-72
2020/12/06 07:12:51;;;;;;;4.57;1.50;;;14.40;80.40;;;;;;5059347;28;20074;-67
2020/12/06 07:15:19;;;;;;;2.47;1.10;;;14.40;80.20;;;;;;5059180;28;20021;-69
2020/12/06 07:17:46;;;;;;;2.38;1.23;;;14.30;80.30;;;;;;5059245;28;20086;-74
2020/12/06 07:20:14;;;;;;;2.78;1.02;;;14.30;80.30;;;;;;5059224;28;20045;-68
2020/12/06 07:22:40;;;;;;;2.63;1.05;;;14.30;80.90;;;;;;5059489;28;20021;-76
2020/12/06 07:25:09;;;;;;;4.07;1.10;;;14.30;79.90;;;;;;5058969;28;20093;-67
2020/12/06 07:27:35;;;;;;;1.90;0.98;;;14.30;80.00;;;;;;5057976;28;20032;-72
2020/12/06 07:30:03;;;;;;;3.63;1.20;;;14.20;79.90;;;;;;5059253;28;20142;-73
2020/12/06 07:32:29;;;;;;;1.80;0.88;;;14.20;80.10;;;;;;5055633;28;20028;-67
2020/12/06 07:34:55;;;;;;;3.13;0.70;;;14.20;79.80;;;;;;5055856;28;20104;-72
2020/12/06 07:37:21;;;;;;;1.83;0.65;;;14.20;79.50;;;;;;5055720;28;20017;-77
2020/12/06 07:39:49;;;;;;;1.48;0.65;;;14.20;79.20;;;;;;5055771;28;20033;-74
2020/12/06 07:42:41;;;;;;;2.00;0.80;;;14.20;79.10;;;;;;5056055;28;20458;-74
2020/12/06 07:45:08;;;;;;;1.45;0.70;;;14.20;79.10;;;;;;5052514;28;20052;-70
2020/12/06 07:47:34;;;;;;;1.63;0.88;;;14.20;78.80;;;;;;5055897;28;20091;-70
2020/12/06 07:50:01;;;;;;;1.17;0.80;;;14.20;78.70;;;;;;5055573;28;20053;-68
2020/12/06 07:52:29;;;;;;;2.28;0.88;;;14.20;78.80;;;;;;5055882;28;20381;-67
2020/12/06 07:55:05;;;;;;;3.03;1.15;;;14.20;78.80;;;;;;5055413;28;20159;-67
2020/12/06 07:57:40;;;;;;;1.58;0.80;;;14.30;78.90;;;;;;5055388;28;20107;-67
2020/12/06 08:00:11;;;;;;;1.15;0.70;;;14.20;78.70;;;;;;5055527;28;20040;-67
2020/12/06 08:02:41;;;;;;;1.25;0.80;;;14.20;78.70;;;;;;5055790;28;20025;-67
2020/12/06 08:05:10;;;;;;;1.63;0.80;;;14.20;78.70;;;;;;5055050;28;20057;-67
2020/12/06 08:07:38;;;;;;;1.38;0.88;;;14.30;78.70;;;;;;5055564;28;20504;-67
2020/12/06 08:10:10;;;;;;;2.75;1.02;;;14.30;78.60;;;;;;5054954;28;20033;-77
2020/12/06 08:12:37;;;;;;;1.48;0.85;;;14.40;78.40;;;;;;5055259;28;20475;-69
2020/12/06 08:15:06;;;;;;;2.88;1.02;;;14.50;78.00;;;;;;5054814;28;20048;-74
2020/12/06 08:17:52;;;;;;;1.48;0.80;;;14.50;77.90;;;;;;5053710;28;20501;-68
2020/12/06 08:20:19;;;;;;;2.92;1.60;;;14.50;77.80;;;;;;5055049;28;20029;-69
2020/12/06 08:22:50;;;;;;;2.20;1.08;;;14.50;77.90;;;;;;5054938;28;20028;-73
2020/12/06 08:25:19;;;;;;;2.78;1.10;;;14.40;77.70;;;;;;5055258;28;20095;-78
2020/12/06 08:27:46;;;;;;;1.75;0.90;;;14.50;78.00;;;;;;5055271;28;20063;-72
2020/12/06 08:30:15;;;;;;;3.50;1.40;;;14.50;77.80;;;;;;5055296;28;20029;-73
2020/12/06 08:32:50;;;;;;;2.42;1.05;;;14.50;77.60;;;;;;5053687;28;20029;-75
2020/12/06 08:35:15;;;;;;;6.80;2.30;;;14.50;77.40;;;;;;5054505;28;20087;-76
2020/12/06 08:37:42;;;;;;;4.55;1.50;;;14.50;77.50;;;;;;5054422;28;20029;-78
2020/12/06 08:40:08;;;;;;;2.30;1.25;;;14.60;77.40;;;;;;5054466;28;20029;-76
2020/12/06 08:42:34;;;;;;;6.40;1.83;;;14.60;77.60;;;;;;5053478;28;20033;-69
2020/12/06 08:45:01;;;;;;;3.95;1.83;;;14.50;77.90;;;;;;5054366;28;20163;-68
2020/12/06 08:47:39;;;;;;;5.85;2.63;;;14.50;78.30;;;;;;5054559;28;20437;-69
2020/12/06 08:50:07;;;;;;;4.88;1.95;;;14.40;78.50;;;;;;5054397;28;20025;-74
2020/12/06 08:52:34;;;;;;;6.18;2.67;;;14.40;79.40;;;;;;5054569;28;20028;-67
2020/12/06 08:55:02;;;;;;;6.70;2.72;;;14.40;79.30;;;;;;5054103;28;20029;-75
2020/12/06 08:57:28;;;;;;;5.32;2.22;;;14.40;79.60;;;;;;5054088;28;20017;-73
2020/12/06 08:59:54;;;;;;;5.57;2.40;;;14.50;79.60;;;;;;5054158;28;20493;-70
2020/12/06 09:02:22;;;;;;;4.15;2.15;;;14.50;79.80;;;;;;5054198;28;20475;-70
2020/12/06 09:04:48;;;;;;;4.13;1.80;;;14.60;79.90;;;;;;5053840;28;20033;-71
2020/12/06 09:07:14;;;;;;;4.68;1.92;;;14.60;79.90;;;;;;5054071;28;20119;-70
2020/12/06 09:09:40;;;;;;;4.40;1.63;;;14.60;79.80;;;;;;5053818;28;20032;-71
2020/12/06 09:12:05;;;;;;;3.65;1.35;;;14.60;79.80;;;;;;5053928;28;20037;-69
2020/12/06 09:14:31;;;;;;;2.72;1.40;;;14.60;79.70;;;;;;5053962;28;20025;-73
2020/12/06 09:16:57;;;;;;;4.03;1.42;;;14.60;80.20;;;;;;5053902;28;20373;-75
2020/12/06 09:19:22;;;;;;;4.13;1.58;;;14.50;79.80;;;;;;5053698;28;20044;-74
2020/12/06 09:21:48;;;;;;;3.90;1.25;;;14.50;80.10;;;;;;5054073;28;20021;-71
2020/12/06 09:24:14;;;;;;;3.47;1.58;;;14.50;80.20;;;;;;5053521;28;20025;-71
2020/12/06 09:26:40;;;;;;;6.57;1.85;;;14.40;80.00;;;;;;5053953;28;20029;-70
2020/12/06 09:29:05;;;;;;;3.80;1.60;;;14.50;80.30;;;;;;5054097;28;20060;-74
2020/12/06 09:31:37;;;;;;;4.57;1.55;;;14.40;79.80;;;;;;5053956;28;20036;-74
2020/12/06 09:34:03;;;;;;;2.80;1.30;;;14.50;80.20;;;;;;5053704;28;20025;-77
2020/12/06 09:36:29;;;;;;;2.50;1.10;;;14.50;80.00;;;;;;5053897;28;20027;-78
2020/12/06 09:38:55;;;;;;;5.57;1.73;;;14.50;79.70;;;;;;5053858;28;20025;-76
2020/12/06 09:41:21;;;;;;;4.05;1.20;;;14.50;79.50;;;;;;5053751;28;20059;-69
2020/12/06 09:43:47;;;;;;;6.40;1.52;;;14.50;79.50;;;;;;5054650;28;20029;-77
2020/12/06 09:46:14;;;;;;;5.18;1.85;;;14.50;79.50;;;;;;5055646;28;20029;-68
2020/12/06 09:48:41;;;;;;;5.32;1.80;;;14.50;79.30;;;;;;5054638;28;20033;-70
2020/12/06 09:51:07;;;;;;;6.10;1.58;;;14.50;79.20;;;;;;5054051;28;20487;-71
2020/12/06 09:53:33;;;;;;;8.00;1.60;;;14.60;79.00;;;;;;5053523;28;20092;-70
2020/12/06 09:55:59;;;;;;;7.55;1.45;;;14.60;78.90;;;;;;5052857;28;20028;-68
2020/12/06 09:58:25;;;;;;;5.57;1.40;;;14.60;79.10;;;;;;5052928;28;20059;-69
2020/12/06 10:00:51;;;;;;;6.43;1.40;;;14.60;79.10;;;;;;5053213;28;20450;-77
2020/12/06 10:03:16;;;;;;;6.25;1.67;;;14.60;78.90;;;;;;5053351;28;20469;-71
2020/12/06 10:05:43;;;;;;;5.93;1.80;;;14.60;79.00;;;;;;5052871;28;20048;-78
2020/12/06 10:08:08;;;;;;;7.25;2.05;;;14.50;79.00;;;;;;5053132;28;20429;-70
2020/12/06 10:10:34;;;;;;;4.82;1.20;;;14.50;78.90;;;;;;5053081;28;20089;-71
2020/12/06 10:13:00;;;;;;;7.07;2.13;;;14.60;79.00;;;;;;5053135;28;20023;-71
2020/12/06 10:15:26;;;;;;;7.03;1.52;;;14.50;78.70;;;;;;5053012;28;20445;-77
2020/12/06 10:17:52;;;;;;;5.28;1.50;;;14.60;78.80;;;;;;5053055;28;20029;-69
2020/12/06 10:20:19;;;;;;;7.47;1.60;;;14.60;78.70;;;;;;5053304;28;20389;-69
2020/12/06 10:22:45;;;;;;;6.22;1.33;;;14.50;78.70;;;;;;5052962;28;20489;-69
2020/12/06 10:25:11;;;;;;;10.18;1.60;;;14.50;78.50;;;;;;5051534;28;20086;-71
2020/12/06 10:27:38;;;;;;;5.90;1.50;;;14.60;78.40;;;;;;5053058;28;20029;-69
2020/12/06 10:30:07;;;;;;;4.80;1.48;;;14.60;78.30;;;;;;5053167;28;20486;-70
2020/12/06 10:32:33;;;;;;;7.43;1.65;;;14.60;78.10;;;;;;5052755;28;20025;-67
2020/12/06 10:34:59;;;;;;;6.53;1.98;;;14.50;78.30;;;;;;5052863;28;20438;-69
2020/12/06 10:37:24;;;;;;;6.45;1.50;;;14.60;78.10;;;;;;5052711;28;20026;-69
2020/12/06 10:39:50;;;;;;;7.65;1.67;;;14.60;78.20;;;;;;5052864;28;20029;-69
2020/12/06 10:42:18;;;;;;;5.47;2.08;;;14.60;77.90;;;;;;5052614;28;20017;-69
2020/12/06 10:44:44;;;;;;;5.82;1.83;;;14.60;77.80;;;;;;5053140;28;20029;-70
2020/12/06 10:47:09;;;;;;;4.15;1.52;;;14.60;77.40;;;;;;5053603;28;20401;-73
2020/12/06 10:49:40;;;;;;;5.05;1.60;;;14.60;77.50;;;;;;5054566;28;20025;-70
2020/12/06 10:52:09;;;;;;;7.00;2.00;;;14.60;77.40;;;;;;5052002;28;20037;-70
2020/12/06 10:54:34;;;;;;;5.55;1.80;;;14.60;77.20;;;;;;5052567;28;20028;-69
2020/12/06 10:57:00;;;;;;;4.35;1.63;;;14.60;77.20;;;;;;5053016;28;20040;-72
2020/12/06 10:59:28;;;;;;;8.88;2.58;;;14.60;77.00;;;;;;5052463;28;20083;-68
2020/12/06 11:01:57;;;;;;;3.88;1.90;;;14.60;77.10;;;;;;5052343;28;20021;-72
2020/12/06 11:04:23;;;;;;;6.10;2.80;;;14.60;77.00;;;;;;5051688;28;20052;-68
2020/12/06 11:06:48;;;;;;;5.95;1.98;;;14.60;76.90;;;;;;5053361;28;20428;-74
2020/12/06 11:09:14;;;;;;;5.78;1.90;;;14.70;77.60;;;;;;5055236;28;20112;-75
2020/12/06 11:11:40;;;;;;;4.55;2.08;;;14.70;76.80;;;;;;5056371;28;20033;-68
2020/12/06 11:14:07;;;;;;;5.88;2.08;;;14.70;76.70;;;;;;5054984;28;20061;-73
2020/12/06 11:16:32;;;;;;;8.73;3.05;;;14.70;76.80;;;;;;5054922;28;20359;-70
2020/12/06 11:18:58;;;;;;;12.30;2.33;;;14.70;76.20;;;;;;5056151;28;20040;-70
2020/12/06 11:21:24;;;;;;;6.68;2.20;;;14.70;76.40;;;;;;5054410;28;20041;-68
2020/12/06 11:23:50;;;;;;;4.93;1.88;;;14.70;76.10;;;;;;5055877;28;20028;-68
2020/12/06 11:26:17;;;;;;;6.35;2.13;;;14.70;76.10;;;;;;5056514;28;20017;-68
2020/12/06 11:28:47;;;;;;;4.88;2.20;;;14.70;75.60;;;;;;5055960;28;20032;-69
2020/12/06 11:31:13;;;;;;;5.15;2.22;;;14.70;75.70;;;;;;5056072;28;20021;-68
2020/12/06 11:33:40;;;;;;;6.95;2.35;;;14.70;75.60;;;;;;5055996;28;20032;-72
2020/12/06 11:36:06;;;;;;;7.88;2.95;;;14.70;75.60;;;;;;5055745;28;20378;-68
2020/12/06 11:38:33;;;;;;;9.07;3.80;;;14.70;75.80;;;;;;5055782;28;20112;-68
2020/12/06 11:41:01;;;;;;;7.20;3.35;;;14.60;75.70;;;;;;5056442;28;20382;-71
2020/12/06 11:43:27;;;;;;;9.45;2.80;;;14.50;76.00;;;;;;5055697;28;20474;-68
2020/12/06 11:45:54;;;;;;;11.48;6.40;;;14.50;76.50;;;;;;5055433;28;20071;-71
2020/12/06 11:48:20;;;;;;;8.45;2.30;;;14.50;76.70;;;;;;5055702;28;20021;-69
2020/12/06 11:50:46;;;;;;;4.90;2.05;;;14.50;76.30;;;;;;5054611;28;20453;-71
2020/12/06 11:53:12;;;;;;;8.25;2.92;;;14.60;75.70;;;;;;5055443;28;20032;-69
2020/12/06 11:55:40;;;;;;;7.55;2.33;;;14.70;75.40;;;;;;5055736;28;20024;-69
2020/12/06 11:58:07;;;;;;;6.60;2.50;;;14.70;75.40;;;;;;5055362;28;20116;-69
2020/12/06 12:00:33;;;;;;;4.40;1.80;;;14.80;75.00;;;;;;5055446;28;20361;-69
2020/12/06 12:02:58;;;;;;;7.53;2.42;;;14.90;74.10;;;;;;5055692;28;20025;-72
2020/12/06 12:05:24;;;;;;;8.10;2.78;;;15.00;74.00;;;;;;5058021;28;20479;-76
2020/12/06 12:07:50;;;;;;;4.60;2.10;;;15.10;73.80;;;;;;5059531;28;20021;-69
2020/12/06 12:10:17;;;;;;;5.88;2.42;;;15.10;73.00;;;;;;5056533;28;20029;-77
2020/12/06 12:12:44;;;;;;;9.02;2.20;;;15.10;73.30;;;;;;5055700;28;20033;-75
2020/12/06 12:15:10;;;;;;;5.10;2.17;;;15.10;73.20;;;;;;5055644;28;20052;-79
2020/12/06 12:17:36;;;;;;;5.40;1.90;;;15.10;73.40;;;;;;5053994;28;20032;-75
2020/12/06 12:20:06;;;;;;;7.07;2.58;;;15.00;73.50;;;;;;5055716;28;20033;-80
2020/12/06 12:22:32;;;;;;;5.43;2.55;;;15.00;73.90;;;;;;5055592;28;20025;-79
2020/12/06 12:24:58;;;;;;;8.30;2.40;;;15.00;74.30;;;;;;5054051;28;20055;-77
2020/12/06 12:27:24;;;;;;;4.65;2.38;;;15.00;73.60;;;;;;5055261;28;20032;-77
2020/12/06 12:29:50;;;;;;;4.47;2.33;;;15.00;73.40;;;;;;5053848;28;20441;-79
2020/12/06 12:32:15;;;;;;;8.55;2.70;;;15.10;73.40;;;;;;5055322;28;20029;-80
2020/12/06 12:34:41;;;;;;;5.72;2.70;;;15.20;73.00;;;;;;5054972;28;20029;-77
2020/12/06 12:37:07;;;;;;;6.78;2.60;;;15.20;72.70;;;;;;5054750;28;20025;-78
2020/12/06 12:39:33;;;;;;;5.88;2.88;;;15.20;72.60;;;;;;5054624;28;20037;-76
2020/12/06 12:41:59;;;;;;;7.97;3.17;;;15.20;72.70;;;;;;5054890;28;20027;-74
2020/12/06 12:44:27;;;;;;;6.30;2.40;;;15.20;73.00;;;;;;5054878;28;20481;-77